Data for 10/30/2016

Time Sea-Level Adjusted Pressure Absolute Pressure Temperature Relative Humidity Dew Point   
(mb) (inHg) (mb) (inHg) (C) (F) (%) (C) (F)
00:05 1019 30.09 848 25.04 8.9 48 55 0.3 32.6
00:10 1019 30.09 848 25.04 9 48.2 54 0.1 32.3
00:15 1019 30.09 848 25.04 9 48.1 55 0.4 32.6
00:20 1019 30.09 848 25.04 8.7 47.7 55 0.3 32.5
00:25 1019 30.09 848 25.04 8.8 47.8 55 0.4 32.7
00:30 1019 30.09 848 25.04 8.8 47.8 56 0.4 32.7
00:35 1018 30.06 848 25.04 8.9 47.9 54 0.2 32.4
00:40 1018 30.06 848 25.04 9 48.1 54 0.3 32.5
00:45 1018 30.06 848 25.04 9.1 48.3 54 0.4 32.6
00:50 1018 30.06 848 25.04 9 48.2 56 0.8 33.4
00:55 1018 30.06 847 25.01 8.6 47.6 57 0.6 33
01:00 1018 30.06 847 25.01 8.8 47.8 57 0.8 33.5
01:05 1018 30.06 847 25.01 8.9 48 57 0.8 33.4
01:10 1018 30.06 847 25.01 8.9 48 57 0.8 33.4
01:15 1018 30.06 847 25.01 9 48.2 56 0.7 33.3
01:20 1018 30.06 847 25.01 9.1 48.4 56 0.9 33.7
01:25 1018 30.06 847 25.01 8.9 48.1 57 0.9 33.7
01:30 1018 30.06 847 25.01 9.1 48.4 56 0.9 33.5
01:35 1018 30.06 847 25.01 9.1 48.5 57 1.1 34
01:40 1018 30.06 847 25.01 8.9 48.1 59 1.3 34.3
01:45 1018 30.06 847 25.01 8.9 48 56 0.7 33.2
01:50 1018 30.06 847 25.01 9.3 48.8 55 0.8 33.5
01:55 1018 30.06 847 25.01 9.5 49.1 54 0.7 33.3
02:00 1018 30.06 847 25.01 9.6 49.3 55 0.9 33.7
02:05 1018 30.06 847 25.01 9.7 49.4 53 0.6 33.1
02:10 1018 30.06 847 25.01 9.8 49.7 53 0.8 33.4
02:15 1018 30.06 847 25.01 9.6 49.3 54 0.8 33.4
02:20 1018 30.06 847 25.01 9.7 49.4 54 0.7 33.3
02:25 1018 30.06 847 25.01 9.5 49.2 54 0.9 33.5
02:30 1018 30.06 847 25.01 9.4 49 55 0.9 33.5
02:35 1018 30.06 847 25.01 9.2 48.6 56 0.9 33.7
02:40 1018 30.06 847 25.01 9 48.2 57 0.9 33.7
02:45 1018 30.06 847 25.01 9 48.2 57 1 33.7
02:50 1018 30.06 847 25.01 9 48.3 57 0.9 33.6
02:55 1018 30.06 847 25.01 9 48.2 57 1 33.8
03:00 1018 30.06 847 25.01 8.8 47.8 58 1.1 34
03:05 1018 30.06 847 25.01 8.7 47.6 59 1.1 33.9
03:10 1017 30.03 847 25.01 8.7 47.6 58 1 33.8
03:15 1017 30.03 847 25.01 8.6 47.5 59 1 33.8
03:20 1017 30.03 847 25.01 8.6 47.6 59 1 33.9
03:25 1017 30.03 847 25.01 8.6 47.4 59 1.1 34
03:30 1017 30.03 847 25.01 8.5 47.3 60 1.1 34
03:35 1017 30.03 847 25.01 8.4 47.1 60 1.2 34.1
03:40 1017 30.03 847 25.01 8.3 46.9 60 1 33.8
03:45 1017 30.03 846 24.98 8.5 47.3 60 1.2 34.1
03:50 1017 30.03 846 24.98 8.6 47.5 60 1.2 34.2
03:55 1017 30.03 846 24.98 8.5 47.2 61 1.4 34.4
04:00 1017 30.03 846 24.98 8.3 46.9 61 1.2 34.1
04:05 1017 30.03 846 24.98 8.1 46.6 61 1.1 34
04:10 1017 30.03 846 24.98 8.1 46.7 61 1.2 34.1
04:15 1017 30.03 846 24.98 8.1 46.5 62 1.3 34.3
04:20 1017 30.03 846 24.98 8.2 46.7 61 1 33.9
04:25 1017 30.03 846 24.98 8.2 46.8 62 1.5 34.6
04:30 1017 30.03 846 24.98 7.7 45.9 64 1.3 34.4
04:35 1017 30.03 846 24.98 7.7 45.8 64 1.2 34.2
04:40 1017 30.03 846 24.98 7.7 45.9 63 1.1 34
04:45 1017 30.03 846 24.98 7.9 46.2 63 1.3 34.4
04:50 1017 30.03 846 24.98 7.7 45.8 64 1.3 34.3
04:55 1017 30.03 846 24.98 7.6 45.7 64 1.3 34.3
05:00 1017 30.03 846 24.98 7.4 45.3 65 1.2 34.2
05:05 1017 30.03 846 24.98 7.3 45.2 64 1.1 33.9
05:10 1017 30.03 846 24.98 7.1 44.7 66 1.2 34.1
05:15 1017 30.03 846 24.98 7.2 45 65 1.1 34
05:20 1017 30.03 846 24.98 7.1 44.7 66 1.2 34.1
05:25 1017 30.03 847 25.01 6.7 44 68 1.1 34
05:30 1017 30.03 846 24.98 6.8 44.2 67 1.1 33.9
05:35 1017 30.03 847 25.01 6.6 43.8 68 1.1 34
05:40 1017 30.03 846 24.98 6.3 43.4 68 1 33.7
05:45 1017 30.03 846 24.98 6.3 43.3 69 0.9 33.7
05:50 1017 30.03 846 24.98 6.2 43.2 68 0.9 33.6
05:55 1017 30.03 846 24.98 6.1 42.9 70 1 33.7
06:00 1017 30.03 846 24.98 5.8 42.5 71 0.9 33.6
06:05 1017 30.03 846 24.98 5.9 42.7 69 0.8 33.4
06:10 1017 30.03 846 24.98 6.2 43.1 68 0.8 33.5
06:15 1017 30.03 846 24.98 6.2 43.2 68 0.8 33.5
06:20 1017 30.03 846 24.98 5.9 42.6 69 0.7 33.3
06:25 1017 30.03 847 25.01 5.9 42.7 69 0.6 33.1
06:30 1017 30.03 846 24.98 6.1 43 68 0.6 33.1
06:35 1017 30.03 846 24.98 6.3 43.4 66 0.5 32.8
06:40 1017 30.03 846 24.98 6.2 43.2 67 0.6 33
06:45 1017 30.03 846 24.98 6.3 43.3 66 0.4 32.7
06:50 1017 30.03 846 24.98 6.3 43.3 67 0.5 32.9
06:55 1017 30.03 846 24.98 5.8 42.4 69 0.5 32.8
07:00 1017 30.03 846 24.98 6.1 43 66 0.2 32.4
07:05 1017 30.03 846 24.98 5.7 42.2 67 0.1 32.2
07:10 1017 30.03 846 24.98 5.7 42.3 68 0.3 32.5
07:15 1017 30.03 846 24.98 6.3 43.4 64 0 32.1
07:20 1017 30.03 846 24.98 6.4 43.5 66 0.5 32.9
07:25 1017 30.03 846 24.98 6 42.7 68 0.5 32.9
07:30 1017 30.03 846 24.98 6.2 43.1 66 0.3 32.5
07:35 1017 30.03 846 24.98 7 44.6 64 0.7 33.2
07:40 1017 30.03 846 24.98 6.8 44.2 64 0.5 32.8
07:45 1017 30.03 846 24.98 6.4 43.6 66 0.6 33
07:50 1017 30.03 846 24.98 5.9 42.6 69 0.6 33.1
07:55 1017 30.03 846 24.98 6.2 43.1 64 -0 32
08:00 1017 30.03 846 24.98 6.6 43.8 62 -0.1 31.8
08:05 1017 30.03 846 24.98 6.7 44.1 64 0.5 32.9
08:10 1017 30.03 846 24.98 7 44.6 63 0.5 32.8
08:15 1017 30.03 846 24.98 6.7 44 65 0.6 33.1
08:20 1017 30.03 846 24.98 6.5 43.7 65 0.4 32.8
08:25 1017 30.03 846 24.98 6.9 44.5 64 0.5 32.9
08:30 1017 30.03 846 24.98 6.8 44.3 64 0.5 32.9
08:35 1017 30.03 846 24.98 6.7 44.1 65 0.6 33
08:40 1017 30.03 846 24.98 7.2 44.9 63 0.5 33
08:45 1017 30.03 846 24.98 7.5 45.4 62 0.6 33.1
08:50 1017 30.03 846 24.98 7.5 45.5 62 0.6 33.1
08:55 1017 30.03 846 24.98 7.4 45.4 62 0.7 33.2
09:00 1017 30.03 846 24.98 7.5 45.4 62 0.7 33.2
09:05 1017 30.03 846 24.98 7.5 45.6 61 0.6 33
09:10 1017 30.03 846 24.98 7.7 45.9 61 0.6 33.1
09:15 1017 30.03 846 24.98 8 46.5 59 0.6 33.1
09:20 1017 30.03 846 24.98 8.4 47.1 59 0.8 33.5
09:25 1017 30.03 846 24.98 8.3 47 59 0.9 33.6
09:30 1017 30.03 846 24.98 8.4 47 60 1 33.7
09:35 1017 30.03 846 24.98 8.5 47.3 59 1 33.8
09:40 1017 30.03 846 24.98 8.8 47.8 56 0.6 33.2
09:45 1017 30.03 846 24.98 9.2 48.5 56 0.8 33.5
09:50 1017 30.03 846 24.98 9.4 48.8 56 1.1 34
09:55 1017 30.03 846 24.98 9.6 49.2 56 1.2 34.1
10:00 1017 30.03 846 24.98 9.9 49.8 55 1.3 34.3
10:05 1017 30.03 846 24.98 10 50 54 1.3 34.3
10:10 1017 30.03 846 24.98 10.3 50.6 54 1.3 34.4
10:15 1017 30.03 846 24.98 10.4 50.8 55 1.8 35.3
10:20 1017 30.03 846 24.98 10.4 50.7 56 2.1 35.7
10:25 1017 30.03 846 24.98 10.3 50.5 58 2.3 36.2
10:30 1017 30.03 846 24.98 10 49.9 57 1.9 35.5
10:35 1017 30.03 846 24.98 10.2 50.3 55 1.6 34.8
10:40 1017 30.03 846 24.98 10.7 51.3 51 1 33.8
10:45 1017 30.03 846 24.98 11.1 52 52 1.6 34.9
10:50 1016 30 846 24.98 11.4 52.5 50 1.4 34.6
10:55 1016 30 846 24.98 11.7 53.1 50 1.6 34.8
11:00 1016 30 846 24.98 12.1 53.7 47 1.1 34
11:05 1016 30 846 24.98 12.4 54.2 46 1 33.9
11:10 1016 30 845 24.95 12.1 53.8 46 0.9 33.6
11:15 1016 30 845 24.95 12.2 54 47 1.3 34.3
11:20 1016 30 845 24.95 12.4 54.3 47 1.6 34.8
11:25 1016 30 845 24.95 12.6 54.7 47 1.6 34.8
11:30 1016 30 845 24.95 12.9 55.1 46 1.5 34.7
11:35 1016 30 845 24.95 12.9 55.2 46 1.6 34.9
11:40 1016 30 845 24.95 13 55.4 46 1.8 35.3
11:45 1016 30 845 24.95 13.4 56 45 1.8 35.2
11:50 1016 30 845 24.95 13.7 56.6 44 1.8 35.3
11:55 1016 30 845 24.95 14.5 58 42 1.7 35.1
12:00 1016 30 845 24.95 14.4 57.9 43 2 35.6
12:05 1015 29.97 845 24.95 14.5 58.1 42 1.8 35.2
12:10 1015 29.97 845 24.95 15.2 59.4 40 1.8 35.3
12:15 1015 29.97 844 24.92 14.8 58.7 43 2.5 36.5
12:20 1015 29.97 844 24.92 14.2 57.6 44 2.2 36
12:25 1015 29.97 844 24.92 14.7 58.5 41 1.8 35.3
12:30 1015 29.97 844 24.92 15.3 59.5 42 2.4 36.3
12:35 1015 29.97 844 24.92 15.9 60.6 39 2.1 35.7
12:40 1015 29.97 844 24.92 16.3 61.4 39 2.3 36.1
12:45 1015 29.97 844 24.92 16.1 61 39 2.4 36.3
12:50 1015 29.97 844 24.92 17.1 62.7 37 2.5 36.5
12:55 1014 29.94 844 24.92 17.4 63.3 39 3.4 38
13:00 1014 29.94 844 24.92 16.4 61.6 42 3.6 38.6
13:05 1014 29.94 843 24.89 16.3 61.3 38 2.1 35.8
13:10 1014 29.94 843 24.89 17.2 63 39 3.1 37.6
13:15 1014 29.94 843 24.89 17.6 63.6 37 2.7 36.9
13:20 1014 29.94 843 24.89 18.1 64.5 37 3.2 37.8
13:25 1014 29.94 843 24.89 18 64.3 38 3.6 38.5
13:30 1014 29.94 843 24.89 17.7 63.9 38 3.5 38.3
13:35 1014 29.94 843 24.89 17.9 64.1 38 3.3 38
13:40 1014 29.94 843 24.89 17.7 63.9 38 3.3 37.9
13:45 1014 29.94 843 24.89 18 64.4 37 3.4 38
13:50 1014 29.94 843 24.89 18 64.4 38 3.6 38.4
13:55 1013 29.91 843 24.89 17.3 63.2 40 3.8 38.8
14:00 1013 29.91 843 24.89 17.1 62.7 40 3.4 38.2
14:05 1013 29.91 843 24.89 17.1 62.8 41 3.8 38.8
14:10 1013 29.91 842 24.86 16.4 61.6 41 3.4 38
14:15 1013 29.91 842 24.86 16.7 62.1 40 3.2 37.8
14:20 1013 29.91 842 24.86 16.3 61.3 43 3.9 39
14:25 1013 29.91 842 24.86 16 60.8 45 4.2 39.6
14:30 1013 29.91 842 24.86 15.7 60.2 45 4 39.2
14:35 1013 29.91 842 24.86 16.3 61.4 44 4 39.3
14:40 1013 29.91 842 24.86 16.6 61.8 45 4.8 40.7
14:45 1012 29.88 842 24.86 16.5 61.7 46 5 41.1
14:50 1012 29.88 842 24.86 16.6 61.9 45 4.7 40.5
14:55 1012 29.88 841 24.83 17.4 63.4 42 4.6 40.4
15:00 1012 29.88 841 24.83 17.7 63.8 43 5.2 41.3
15:05 1012 29.88 841 24.83 17.2 62.9 45 5.2 41.4
15:10 1012 29.88 841 24.83 17.4 63.4 42 4.5 40.1
15:15 1012 29.88 841 24.83 17.9 64.2 41 4.6 40.2
15:20 1012 29.88 841 24.83 17.4 63.3 44 5.1 41.1
15:25 1012 29.88 841 24.83 17 62.6 43 4.6 40.3
15:30 1012 29.88 841 24.83 16.9 62.4 43 4.5 40.1
15:35 1011 29.85 841 24.83 17 62.7 42 4.1 39.3
15:40 1011 29.85 840 24.81 17.1 62.8 40 3.5 38.2
15:45 1011 29.85 840 24.81 17.1 62.7 42 4.3 39.7
15:50 1011 29.85 840 24.81 17.1 62.8 43 4.6 40.3
15:55 1011 29.85 840 24.81 16.9 62.4 43 4.5 40.1
16:00 1011 29.85 840 24.81 17.1 62.8 42 4.2 39.5
16:05 1011 29.85 840 24.81 17.4 63.2 41 3.9 39.1
16:10 1011 29.85 840 24.81 17.4 63.4 39 3.6 38.4
16:15 1011 29.85 840 24.81 17.3 63.2 40 3.6 38.4
16:20 1011 29.85 840 24.81 17.2 62.9 41 3.8 38.9
16:25 1011 29.85 840 24.81 17.1 62.8 40 3.6 38.5
16:30 1011 29.85 840 24.81 17 62.6 40 3.4 38.1
16:35 1011 29.85 840 24.81 17.2 62.9 41 3.7 38.7
16:40 1011 29.85 840 24.81 17.1 62.8 48 6 42.8
16:45 1011 29.85 840 24.81 16.7 62 52 6.7 44.1
16:50 1011 29.85 840 24.81 16.2 61.1 54 6.9 44.3
16:55 1011 29.85 840 24.81 15.8 60.4 55 6.9 44.4
17:00 1011 29.85 840 24.81 15.2 59.4 55 6.2 43.2
17:05 1011 29.85 840 24.81 14.8 58.6 56 6.2 43.2
17:10 1010 29.83 840 24.81 14.8 58.6 56 6 42.9
17:15 1010 29.83 839 24.78 14.5 58.1 57 6.2 43.1
17:20 1010 29.83 839 24.78 14 57.1 59 6.2 43.2
17:25 1010 29.83 839 24.78 13.8 56.8 58 5.8 42.5
17:30 1010 29.83 839 24.78 13.8 56.8 56 5.2 41.4
17:35 1010 29.83 839 24.78 13.7 56.6 56 5.2 41.4
17:40 1010 29.83 839 24.78 13.6 56.6 57 5.4 41.8
17:45 1010 29.83 839 24.78 13.6 56.4 57 5.4 41.7
17:50 1010 29.83 839 24.78 13.6 56.5 58 5.6 42
17:55 1010 29.83 839 24.78 13.5 56.3 58 5.6 42
18:00 1010 29.83 839 24.78 13.4 56.1 59 5.5 42
18:05 1010 29.83 839 24.78 13.4 56.1 60 5.9 42.7
18:10 1010 29.83 839 24.78 13.6 56.5 52 4.1 39.3
18:15 1010 29.83 839 24.78 14 57.1 62 7 44.6
18:20 1010 29.83 839 24.78 13.3 55.9 61 6 42.8
18:25 1010 29.83 839 24.78 13 55.3 62 5.9 42.6
18:30 1010 29.83 839 24.78 12.5 54.4 62 5.5 41.9
18:35 1010 29.83 839 24.78 12.5 54.5 63 5.7 42.3
18:40 1010 29.83 839 24.78 12.4 54.2 67 6.5 43.6
18:45 1010 29.83 839 24.78 12 53.5 69 6.4 43.6
18:50 1010 29.83 839 24.78 11.8 53.2 69 6.2 43.2
18:55 1010 29.83 839 24.78 11.6 52.9 69 6.1 43.1
19:00 1009 29.8 839 24.78 11.6 52.8 75 7.3 45.2
19:05 1009 29.8 839 24.78 11 51.8 80 7.7 45.9
19:10 1009 29.8 838 24.75 10.5 50.9 81 7.4 45.3
19:15 1009 29.8 838 24.75 10.4 50.7 82 7.4 45.3
19:20 1009 29.8 838 24.75 10.2 50.3 83 7.4 45.3
19:25 1009 29.8 838 24.75 10.1 50.1 83 7.2 45
19:30 1009 29.8 838 24.75 10 50 82 7.1 44.8
19:35 1009 29.8 838 24.75 9.9 49.8 84 7.3 45.2
19:40 1008 29.77 838 24.75 9.7 49.5 85 7.3 45.2
19:45 1008 29.77 838 24.75 9.7 49.4 85 7.3 45.2
19:50 1008 29.77 837 24.72 9.6 49.3 86 7.4 45.3
19:55 1008 29.77 837 24.72 9.5 49.1 87 7.4 45.3
20:00 1008 29.77 837 24.72 9.5 49 86 7.3 45.2
20:05 1008 29.77 837 24.72 9.5 49.1 85 7 44.7
20:10 1008 29.77 837 24.72 9.6 49.2 85 7.2 44.9
20:15 1008 29.77 837 24.72 9.5 49.1 86 7.2 44.9
20:20 1007 29.74 837 24.72 9.4 48.8 87 7.2 45
20:25 1007 29.74 836 24.69 9.3 48.7 87 7.2 44.9
20:30 1007 29.74 836 24.69 9.3 48.7 86 7.1 44.7
20:35 1007 29.74 836 24.69 9.4 48.9 85 6.9 44.5
20:40 1006 29.71 835 24.66 9.6 49.2 83 6.8 44.3
20:45 1006 29.71 836 24.69 9.7 49.5 82 6.8 44.3
20:50 1006 29.71 836 24.69 9.9 49.8 81 6.7 44.1
20:55 1006 29.71 836 24.69 9.9 49.8 81 6.8 44.3
21:00 1006 29.71 836 24.69 9.7 49.5 83 7 44.7
21:05 1006 29.71 835 24.66 9.6 49.3 84 7 44.6
21:10 1006 29.71 835 24.66 9.5 49.1 84 7 44.7
21:15 1006 29.71 835 24.66 9.4 48.9 86 7.1 44.8
21:20 1005 29.68 835 24.66 9.4 48.9 85 7 44.5
21:25 1005 29.68 834 24.63 9.4 49 84 6.9 44.3
21:30 1005 29.68 834 24.63 9.6 49.2 83 6.9 44.4
21:35 1005 29.68 834 24.63 9.6 49.2 84 7.1 44.7
21:40 1005 29.68 834 24.63 9.6 49.2 83 6.9 44.4
21:45 1005 29.68 834 24.63 9.7 49.4 83 6.8 44.3
21:50 1004 29.65 834 24.63 9.6 49.3 83 6.8 44.3
21:55 1004 29.65 833 24.6 9.6 49.2 83 6.9 44.4
22:00 1004 29.65 833 24.6 9.5 49 83 6.8 44.3
22:05 1004 29.65 833 24.6 9.5 49.1 84 6.9 44.4
22:10 1004 29.65 833 24.6 9.6 49.2 82 6.7 44.1
22:15 1004 29.65 833 24.6 9.7 49.5 82 6.8 44.3
22:20 1004 29.65 833 24.6 9.7 49.4 83 7 44.6
22:25 1004 29.65 833 24.6 9.6 49.3 84 7 44.6
22:30 1004 29.65 833 24.6 9.4 49 86 7.1 44.9
22:35 1004 29.65 833 24.6 9.3 48.8 86 7.1 44.8
22:40 1004 29.65 833 24.6 9.3 48.8 87 7.2 45
22:45 1004 29.65 834 24.63 9.2 48.6 87 7.3 45.1
22:50 1005 29.68 834 24.63 9.2 48.5 88 7.2 45
22:55 1005 29.68 834 24.63 9.1 48.4 88 7.3 45.1
23:00 1005 29.68 834 24.63 9 48.3 89 7.3 45.2
23:05 1005 29.68 834 24.63 9 48.2 89 7.2 45
23:10 1005 29.68 834 24.63 9 48.2 90 7.5 45.5
23:15 1005 29.68 834 24.63 9.1 48.3 90 7.5 45.6
23:20 1005 29.68 835 24.66 9.1 48.4 90 7.6 45.7
23:25 1006 29.71 835 24.66 9.2 48.5 89 7.4 45.4
23:30 1006 29.71 835 24.66 9.3 48.7 86 7.1 44.7
23:35 1006 29.71 835 24.66 9.5 49 87 7.4 45.3
23:40 1006 29.71 836 24.69 9.4 48.8 89 7.6 45.7
23:45 1006 29.71 835 24.66 9.1 48.3 90 7.4 45.4
23:50 1006 29.71 836 24.69 8.8 47.8 91 7.3 45.2
23:55 1006 29.71 836 24.69 8.7 47.7 91 7.3 45.2
24:00 1006 29.71 836 24.69 8.7 47.7 91 7.4 45.3